North Spring Valley, Nevada Weather observations

Data are for 10 minute period ending at time listed.
 Day   Time   Solar   Ave.   Ave.  Ave.  Vector  Max.   Baro.   Total    
  of    of     Rad.   Air    Rel.  Wind   Wind   Wind  Press.  Precip.   
Year   Day            Temp.  Hum.  Speed  Dir.   Gust                    
2016   (PST)  Kw/m2    F      %     mph   deg.    mph    mb.     in.     
-------------------------------------------------------------------------
 182    0:00   0.00   58.2    85    3.0   305     4.5   830.2    0.00 
 182    0:10   0.00   58.3    86    0.8     2     2.7   830.2    0.00 
 182    0:20   0.00   58.1    87    1.4   263     3.5   830.1    0.00 
 182    0:30   0.00   58.4    87    1.9   282     3.1   829.9    0.00 
 182    0:40   0.00   58.8    86    1.5   259     2.7   829.8    0.00 
 182    0:50   0.00   59.4    85    2.1   224     2.9   829.8    0.00 
 182    1:00   0.00   59.3    87    2.4   201     3.4   829.8    0.00 
 182    1:10   0.00   57.8    88    2.3   243     3.4   829.8    0.00 
 182    1:20   0.00   57.3    90    2.4   232     3.3   829.8    0.00 
 182    1:30   0.00   56.7    89    3.1   255     4.7   829.8    0.00 
 182    1:40   0.00   56.7    90    0.6    69     2.0   829.8    0.00 
 182    1:50   0.00   57.6    88    0.1    90     1.2   829.8    0.00 
 182    2:00   0.00   56.9    90    2.5   199     3.6   829.8    0.00 
 182    2:10   0.00   56.3    91    2.4   214     3.3   829.8    0.00 
 182    2:20   0.00   56.2    92    0.6   160     3.3   829.8    0.00 
 182    2:30   0.00   54.9    90    1.4   114     3.2   829.8    0.00 
 182    2:40   0.00   53.8    93    2.2   263     3.7   829.9    0.00 
 182    2:50   0.00   55.0    95    0.4   264     1.2   829.9    0.00 
 182    3:00   0.00   55.4    94    1.2   148     3.6   829.8    0.00 
 182    3:10   0.00   54.3    93    1.5   175     3.4   829.9    0.00 
 182    3:20   0.00   54.1    94    0.4   214     2.9   829.9    0.00 
 182    3:30   0.00   54.4    95    2.3   271     3.7   830.0    0.00 
 182    3:40   0.00   55.1    93    1.5   306     3.0   830.1    0.00 
 182    3:50   0.00   53.4    92    2.0    31     3.0   830.2    0.00 
 182    4:00   0.00   53.3    94    1.9   334     3.0   830.3    0.00 
 182    4:10   0.00   53.7    96    2.3   272     3.4   830.3    0.00 
 182    4:20   0.00   54.3    96    0.7   252     1.8   830.4    0.00 
 182    4:30   0.01   54.8    96    0.5   248     1.3   830.4    0.00 
 182    4:40   0.03   55.8    95    0.0     0     0.0   830.5    0.00 
 182    4:50   0.04   55.7    91    1.3   308     2.1   830.5    0.00 
 182    5:00   0.03   54.8    91    0.9    72     1.7   830.4    0.00 
 182    5:10   0.04   54.0    92    0.1   130     1.2   830.5    0.00 
 182    5:20   0.05   53.7    92    0.0     0     0.0   830.6    0.00 
 182    5:30   0.05   53.9    92    0.0     0     0.0   830.6    0.00 
 182    5:40   0.06   54.0    92    0.1     3     1.4   830.5    0.00 
 182    5:50   0.08   54.5    92    1.3    32     2.2   830.5    0.00 
 182    6:00   0.08   55.1    92    1.0   293     2.0   830.5    0.00 
 182    6:10   0.14   56.1    94    0.7   277     2.2   830.4    0.00 
 182    6:20   0.22   59.6    95    0.0     0     0.0   830.5    0.00 
 182    6:30   0.30   62.0    86    1.8    67     5.3   830.6    0.00 
 182    6:40   0.35   60.4    85    2.9    78     4.7   830.7    0.00 
 182    6:50   0.35   60.8    82    2.2    68     4.3   830.8    0.00 
 182    7:00   0.44   62.7    77    1.1    79     2.6   830.7    0.00 
 182    7:10   0.43   64.3    73    0.9    54     2.5   830.6    0.00 
 182    7:20   0.48   65.4    71    0.8    80     3.5   830.6    0.00 
 182    7:30   0.40   65.3    72    1.2    62     3.2   830.6    0.00 
 182    7:40   0.42   67.5    68    0.4   119     2.0   830.5    0.00 
 182    7:50   0.60   68.7    67    0.6   301     1.8   830.4    0.00 
 182    8:00   0.69   71.3    60    1.4   199     5.8   830.3    0.00 
 182    8:10   0.71   72.9    50    4.2   175     7.2   830.2    0.00 
 182    8:20   0.73   73.8    47    3.6   144     6.1   830.2    0.00 
 182    8:30   0.73   73.6    50    3.6   143     7.7   830.1    0.00 
 182    8:40   0.67   73.6    52    3.8   141     6.1   830.0    0.00 
 182    8:50   0.80   74.0    53    4.4   144     7.5   829.8    0.00 
 182    9:00   0.81   74.3    53    4.9   140     8.0   829.7    0.00 
 182    9:10   0.80   75.0    49    4.9   159     7.2   829.6    0.00 
 182    9:20   0.84   75.6    48    5.0   154     9.4   829.6    0.00 
 182    9:30   0.86   75.5    52    5.8   146    10.2   829.6    0.00 
 182    9:40   0.88   76.1    52    7.2   152    11.9   829.6    0.00 
 182    9:50   0.90   77.0    49    7.4   163    10.5   829.6    0.00 
 182   10:00   0.92   77.8    47    6.0   160     9.7   829.5    0.00 
 182   10:10   0.94   78.2    48    5.8   155     9.5   829.4    0.00 
 182   10:20   0.99   79.0    47    5.8   154     9.6   829.4    0.00 
 182   10:30   1.05   80.4    42    4.9   170    11.1   829.3    0.00 
 182   10:40   0.94   80.7    39    5.1   148     9.7   829.1    0.00 
 182   10:50   0.99   81.4    35    5.0   143    11.2   829.1    0.00 
 182   11:00   1.07   82.4    33    4.5   129     9.1   829.0    0.00 
 182   11:10   1.03   82.5    33    5.6   119     9.2   828.9    0.00 
 182   11:20   0.38   80.4    35    5.0   102     9.4   828.8    0.00 
 182   11:30   0.24   79.1    36    4.0   135     7.4   828.7    0.00 
 182   11:40   0.24   79.9    34    4.2   155     7.6   828.5    0.00 
 182   11:50   0.23   80.0    34    4.7   159     7.8   828.3    0.00 
 182   12:00   0.28   80.3    34    5.0   166     9.0   828.1    0.00 
 182   12:10   0.32   80.3    35    5.7   157    10.2   828.0    0.00 
 182   12:20   0.35   80.8    33    7.5   172    11.1   827.9    0.00 
 182   12:30   0.37   80.3    38    5.5   146     8.2   827.8    0.00 
 182   12:40   0.27   79.5    39    5.0   147     7.2   827.8    0.00 
 182   12:50   0.12   79.1    43    2.3   196     6.6   828.1    0.00 
 182   13:00   0.06   75.4    35   13.8   289    23.3   828.6    0.00 
 182   13:10   0.05   73.7    31   17.2   280    28.2   828.2    0.00 
 182   13:20   0.04   73.9    30   14.2   274    24.0   828.2    0.00 
 182   13:30   0.04   75.2    28   14.9   255    25.6   828.2    0.00 
 182   13:40   0.04   76.0    27    9.5   226    16.4   828.4    0.00 
 182   13:50   0.03   75.1    30   10.1   352    21.3   829.3    0.00 
 182   14:00   0.03   71.3    36   13.6    56    21.3   830.0    0.00 
 182   14:10   0.03   68.9    41   10.2    56    16.0   830.4    0.00 
 182   14:20   0.06   67.6    44    9.7    59    17.2   830.9    0.00 
 182   14:30   0.10   66.9    50    3.1   278     7.6   831.0    0.00 
 182   14:40   0.19   67.3    51    5.3   268    13.6   830.7    0.00 
 182   14:50   0.23   69.5    42    8.3   245    15.0   830.4    0.00 
 182   15:00   0.24   71.2    40    2.0   205     7.7   830.1    0.00 
 182   15:10   0.22   72.2    38    3.3   241     8.0   829.9    0.00 
 182   15:20   0.17   71.0    43    4.2   260     7.7   829.9    0.00 
 182   15:30   0.16   71.1    46    1.3   260     3.1   829.8    0.00 
 182   15:40   0.16   72.3    44    0.6   339     2.3   829.7    0.00 
 182   15:50   0.16   72.8    42    1.4   283     3.7   829.5    0.00 
 182   16:00   0.15   72.2    45    2.4   341     4.4   829.6    0.00 
 182   16:10   0.14   71.1    56    2.3    89     3.2   829.6    0.00 
 182   16:20   0.12   71.0    49    3.8     0    11.3   829.4    0.00 
 182   16:30   0.10   70.4    45    5.8     1    10.9   829.4    0.00 
 182   16:40   0.08   69.8    47    4.4     2     7.5   829.4    0.00 
 182   16:50   0.06   69.9    46    3.9     1     4.9   829.4    0.00 
 182   17:00   0.05   68.4    52    4.1    21     5.7   829.4    0.00 
 182   17:10   0.04   67.8    53    1.3    39     3.8   829.6    0.00 
 182   17:20   0.04   68.3    56    3.4   168     4.3   829.7    0.00 
 182   17:30   0.03   68.2    57    4.7   180     6.9   829.8    0.00 
 182   17:40   0.03   69.1    52    3.8   175     5.3   829.8    0.00 
 182   17:50   0.03   68.6    55    2.9   170     4.5   829.9    0.00 
 182   18:00   0.02   67.6    61    2.5   162     3.4   829.9    0.00 
 182   18:10   0.02   67.3    60    3.8   156     7.5   829.9    0.00 
 182   18:20   0.02   66.8    60    3.7   134     7.3   830.0    0.00 
 182   18:30   0.02   65.4    61    3.0   148     3.9   830.0    0.00 
 182   18:40   0.01   65.2    61    2.4   188     4.5   830.1    0.00 
 182   18:50   0.01   65.6    58    2.1   182     3.9   830.2    0.00 
 182   19:00   0.01   65.4    58    1.2   127     2.8   830.2    0.00 
 182   19:10   0.00   64.0    64    2.0   330     5.0   830.2    0.00 
 182   19:20   0.00   62.2    67    3.9   270     5.3   829.9    0.00 
 182   19:30   0.00   62.5    69    3.0    30     5.2   830.1    0.00 
 182   19:40   0.00   62.7    68    4.2    37     5.8   830.5    0.00 
 182   19:50   0.00   61.4    67    3.8   112     6.6   830.8    0.00 
 182   20:00   0.00   61.8    66    4.3   238     9.1   830.8    0.00 
 182   20:10   0.00   62.7    65    6.2   262     9.4   830.8    0.00 
 182   20:20   0.00   63.4    64    4.6   271     5.9   830.9    0.00 
 182   20:30   0.00   63.8    64    3.9   265     4.6   830.9    0.00 
 182   20:40   0.00   64.9    60    2.8   258     3.9   830.9    0.00 
 182   20:50   0.00   66.0    54    4.5   225     6.5   830.9    0.00 
 182   21:00   0.00   68.6    46    6.0   216     8.4   830.7    0.00 
 182   21:10   0.00   69.3    43    7.8   200    15.6   830.6    0.00 

Return to North Spring Valley graphs page.


Western Regional Climate Center,wrcc@dri.edu